Time;durP1;ratioP1;P1;durP2;ratioP2;P2;SDS_P1;SDS_P2;PMS_P1;PMS_P2;Temp;Humidity;BMP_temperature;BMP_pressure;BME280_temperature;BME280_humidity;BME280_pressure;Samples;Min_cycle;Max_cycle;Signal;HPM_P1;HPM_P2
2022/02/15 00:02:22;;;;;;;17.20;8.63;;;;;;;;;;4981463;28;20058;-78
2022/02/15 00:04:48;;;;;;;15.93;9.00;;;;;;;;;;4984025;28;20166;-77
2022/02/15 00:07:14;;;;;;;17.08;9.23;;;;;;;;;;4984020;28;20497;-77
2022/02/15 00:09:40;;;;;;;7.53;4.68;;;;;;;;;;4984239;28;20031;-77
2022/02/15 00:12:10;;;;;;;30.50;15.95;;;;;;;;;;4988123;28;20057;-77
2022/02/15 00:14:38;;;;;;;49.10;25.27;;;;;;;;;;4985360;28;20038;-77
2022/02/15 00:17:04;;;;;;;11.32;6.93;;;;;;;;;;4987091;28;20045;-77
2022/02/15 00:19:41;;;;;;;19.55;9.85;;;;;;;;;;4987073;28;20050;-78
2022/02/15 00:22:13;;;;;;;7.80;5.05;;;;;;;;;;4987821;28;20603;-77
2022/02/15 00:24:39;;;;;;;10.57;6.88;;;;;;;;;;4982728;28;20063;-78
2022/02/15 00:27:06;;;;;;;17.73;9.65;;;;;;;;;;4984000;28;20039;-77
2022/02/15 00:29:33;;;;;;;18.63;11.23;;;;;;;;;;4984800;28;20062;-77
2022/02/15 00:32:03;;;;;;;15.73;9.90;;;;;;;;;;4987553;28;20030;-78
2022/02/15 00:34:29;;;;;;;13.38;8.48;;;;;;;;;;4987836;28;20053;-78
2022/02/15 00:37:10;;;;;;;17.98;13.13;;;;;;;;;;4984568;28;20035;-78
2022/02/15 00:39:36;;;;;;;14.98;9.75;;;;;;;;;;4983581;28;20077;-77
2022/02/15 00:42:02;;;;;;;14.88;9.50;;;;;;;;;;4987989;28;20023;-78
2022/02/15 00:44:31;;;;;;;12.00;7.50;;;;;;;;;;4988851;28;20034;-77
2022/02/15 00:47:24;;;;;;;18.38;11.43;;;;;;;;;;4992267;28;20011;-78
2022/02/15 00:49:53;;;;;;;15.77;9.70;;;;;;;;;;4990602;28;20034;-78
2022/02/15 00:52:19;;;;;;;10.63;7.10;;;;;;;;;;4991703;28;20017;-80
2022/02/15 00:54:45;;;;;;;11.23;7.72;;;;;;;;;;4991939;28;20042;-76
2022/02/15 00:57:15;;;;;;;11.35;7.40;;;;;;;;;;4993018;28;20031;-79
2022/02/15 00:59:47;;;;;;;11.93;6.72;;;;;;;;;;4973167;28;20008;-76
2022/02/15 01:03:52;;;;;;;12.75;8.43;;;;;;;;;;4992757;28;20058;-79
2022/02/15 01:05:45;;;;;;;9.43;5.43;;;;;;;;;;4918828;29;20028;-77
2022/02/15 01:08:12;;;;;;;11.95;7.25;;;;;;;;;;4925706;29;20532;-77
2022/02/15 01:10:46;;;;;;;17.45;8.68;;;;;;;;;;4928622;29;20048;-76
2022/02/15 01:13:13;;;;;;;11.63;5.93;;;;;;;;;;4931631;29;20032;-78
2022/02/15 01:15:39;;;;;;;9.00;5.72;;;;;;;;;;4914105;29;20043;-78
2022/02/15 01:18:07;;;;;;;15.30;8.15;;;;;;;;;;4908530;29;20115;-78
2022/02/15 01:20:36;;;;;;;9.80;5.07;;;;;;;;;;4896750;29;20048;-78
2022/02/15 01:23:03;;;;;;;8.18;4.97;;;;;;;;;;4914843;29;20202;-78
2022/02/15 01:25:33;;;;;;;11.40;6.75;;;;;;;;;;4905506;29;20024;-77
2022/02/15 01:27:59;;;;;;;9.07;5.30;;;;;;;;;;4908740;29;20037;-78
2022/02/15 01:30:45;;;;;;;13.40;5.57;;;;;;;;;;4930194;29;20024;-77
2022/02/15 01:33:42;;;;;;;11.23;5.72;;;;;;;;;;4912606;29;20026;-77
2022/02/15 01:36:08;;;;;;;19.42;9.93;;;;;;;;;;4876486;29;20045;-77
2022/02/15 01:38:40;;;;;;;30.35;13.85;;;;;;;;;;4886462;29;20025;-79
2022/02/15 01:41:06;;;;;;;17.98;9.30;;;;;;;;;;4912194;29;20040;-78
2022/02/15 01:43:49;;;;;;;;;;;;;;;;;;;;;
2022/02/15 01:46:17;;;;;;;14.47;7.47;;;;;;;;;;4929583;29;20110;-78
2022/02/15 01:48:55;;;;;;;9.77;5.93;;;;;;;;;;4915570;29;20267;-79
2022/02/15 01:51:27;;;;;;;10.50;5.47;;;;;;;;;;4915424;29;20048;-78
2022/02/15 01:54:11;;;;;;;6.35;4.45;;;;;;;;;;4930368;29;20016;-77
2022/02/15 01:56:57;;;;;;;8.07;4.47;;;;;;;;;;4916489;29;20046;-78
2022/02/15 01:59:31;;;;;;;7.53;3.97;;;;;;;;;;4951408;29;20117;-78
2022/02/15 02:01:59;;;;;;;5.88;4.13;;;;;;;;;;4951336;29;20019;-78
2022/02/15 02:07:10;;;;;;;10.32;5.88;;;;;;;;;;4967415;28;20086;-77
2022/02/15 02:09:38;;;;;;;17.80;10.38;;;;;;;;;;4951550;29;20035;-78
2022/02/15 02:12:29;;;;;;;21.60;11.65;;;;;;;;;;4954558;29;20023;-78
2022/02/15 02:15:11;;;;;;;13.48;8.18;;;;;;;;;;4953942;29;20020;-78
2022/02/15 02:17:40;;;;;;;10.27;4.70;;;;;;;;;;4952350;29;20095;-78
2022/02/15 02:20:08;;;;;;;9.18;4.45;;;;;;;;;;4954377;29;20074;-79
2022/02/15 02:22:39;;;;;;;6.07;3.40;;;;;;;;;;4965770;29;20027;-78
2022/02/15 02:25:05;;;;;;;7.60;3.80;;;;;;;;;;4953543;29;20032;-78
2022/02/15 02:27:36;;;;;;;6.53;4.03;;;;;;;;;;4954926;29;20030;-79
2022/02/15 02:30:05;;;;;;;11.90;4.25;;;;;;;;;;4938784;29;20038;-78
2022/02/15 02:32:33;;;;;;;20.98;7.07;;;;;;;;;;4950823;29;20046;-78
2022/02/15 02:35:14;;;;;;;21.38;8.57;;;;;;;;;;4986208;28;20141;-78
2022/02/15 02:37:53;;;;;;;12.30;5.13;;;;;;;;;;4987852;28;20049;-78
2022/02/15 02:40:27;;;;;;;8.68;4.60;;;;;;;;;;4971589;28;20023;-78
2022/02/15 02:43:16;;;;;;;15.15;7.65;;;;;;;;;;4985389;28;20507;-78
2022/02/15 02:45:45;;;;;;;23.77;9.07;;;;;;;;;;4970510;28;20147;-77
2022/02/15 02:48:15;;;;;;;10.00;6.38;;;;;;;;;;4990131;28;20057;-79
2022/02/15 02:51:04;;;;;;;18.27;11.73;;;;;;;;;;4989376;28;20094;-77
2022/02/15 02:53:34;;;;;;;10.60;6.35;;;;;;;;;;4988418;28;20039;-78
2022/02/15 02:56:03;;;;;;;8.25;6.05;;;;;;;;;;4987950;28;20062;-78
2022/02/15 02:58:30;;;;;;;7.43;4.05;;;;;;;;;;4969871;29;20067;-79
2022/02/15 03:01:01;;;;;;;7.15;3.80;;;;;;;;;;4969434;28;20039;-78
2022/02/15 03:03:33;;;;;;;10.30;4.35;;;;;;;;;;4965839;28;20039;-78
2022/02/15 03:05:59;;;;;;;7.20;3.97;;;;;;;;;;4986859;28;20079;-77
2022/02/15 03:08:27;;;;;;;13.30;6.00;;;;;;;;;;4988293;28;20027;-78
2022/02/15 03:11:22;;;;;;;32.10;10.73;;;;;;;;;;4985921;28;20057;-78
2022/02/15 03:14:08;;;;;;;9.45;4.28;;;;;;;;;;4935015;29;20051;-77
2022/02/15 03:16:39;;;;;;;24.27;8.98;;;;;;;;;;4947041;29;20032;-77
2022/02/15 03:19:10;;;;;;;12.82;5.30;;;;;;;;;;4931099;29;20039;-79
2022/02/15 03:21:37;;;;;;;17.52;7.15;;;;;;;;;;4922868;29;20500;-78
2022/02/15 03:24:14;;;;;;;11.13;4.07;;;;;;;;;;4930491;29;20044;-77
2022/02/15 03:27:15;;;;;;;4.70;3.20;;;;;;;;;;4936773;29;20015;-78
2022/02/15 03:29:59;;;;;;;4.50;3.22;;;;;;;;;;4897787;29;20100;-78
2022/02/15 03:32:36;;;;;;;10.27;5.35;;;;;;;;;;4870174;29;20046;-78
2022/02/15 03:35:42;;;;;;;7.05;4.32;;;;;;;;;;4875718;29;20064;-78
2022/02/15 03:38:12;;;;;;;12.18;7.70;;;;;;;;;;4862721;29;20033;-78
2022/02/15 03:43:29;;;;;;;33.05;6.72;;;;;;;;;;4881395;29;20036;-76
2022/02/15 03:46:09;;;;;;;23.83;7.22;;;;;;;;;;4918202;29;20040;-78
2022/02/15 03:48:48;;;;;;;11.25;4.15;;;;;;;;;;4930643;29;20083;-78
2022/02/15 03:51:23;;;;;;;7.53;4.10;;;;;;;;;;4933481;29;20032;-78
2022/02/15 03:54:13;;;;;;;11.57;4.15;;;;;;;;;;4930592;29;20585;-78
2022/02/15 04:00:03;;;;;;;8.75;3.67;;;;;;;;;;4930345;29;20040;-78
2022/02/15 04:02:34;;;;;;;7.13;4.22;;;;;;;;;;4873365;29;20029;-78
2022/02/15 04:05:06;;;;;;;8.90;4.60;;;;;;;;;;4861685;29;20046;-78
2022/02/15 04:07:51;;;;;;;11.23;5.70;;;;;;;;;;4894266;29;20045;-78
2022/02/15 04:10:24;;;;;;;15.20;5.00;;;;;;;;;;4894989;29;20050;-78
2022/02/15 04:12:51;;;;;;;9.55;3.95;;;;;;;;;;4876115;29;20120;-77
2022/02/15 04:15:26;;;;;;;7.13;3.60;;;;;;;;;;4876838;29;20489;-78
2022/02/15 04:17:56;;;;;;;11.07;3.92;;;;;;;;;;4855367;29;20069;-78
2022/02/15 04:20:30;;;;;;;10.32;3.63;;;;;;;;;;4857026;29;20504;-78
2022/02/15 04:23:03;;;;;;;15.38;3.95;;;;;;;;;;4891179;29;20122;-79
2022/02/15 04:25:30;;;;;;;9.65;3.58;;;;;;;;;;4878712;29;20048;-78
2022/02/15 04:27:56;;;;;;;9.18;3.85;;;;;;;;;;4907873;29;20139;-76
2022/02/15 04:30:26;;;;;;;27.52;5.63;;;;;;;;;;4928349;29;20075;-78
2022/02/15 04:33:03;;;;;;;10.40;4.28;;;;;;;;;;4915837;29;20050;-78
2022/02/15 04:36:09;;;;;;;13.98;6.05;;;;;;;;;;4933597;29;20059;-78
2022/02/15 04:38:47;;;;;;;10.82;4.57;;;;;;;;;;4947778;28;20082;-79
2022/02/15 04:41:15;;;;;;;8.80;5.28;;;;;;;;;;4988698;28;20039;-78
2022/02/15 04:43:44;;;;;;;11.88;7.07;;;;;;;;;;4994469;28;20035;-78
2022/02/15 04:46:10;;;;;;;13.32;7.47;;;;;;;;;;4992306;28;20031;-79
2022/02/15 04:48:55;;;;;;;22.85;12.40;;;;;;;;;;4977760;28;20043;-78
2022/02/15 04:51:22;;;;;;;34.33;18.45;;;;;;;;;;4994661;28;20038;-78
2022/02/15 04:54:17;;;;;;;43.38;22.38;;;;;;;;;;4995945;28;20050;-78
2022/02/15 04:56:43;;;;;;;;;;;;;;;;;;4992242;28;20038;-79
2022/02/15 04:59:15;;;;;;;37.47;19.25;;;;;;;;;;4976368;28;19906;-79
2022/02/15 05:01:42;;;;;;;22.48;13.50;;;;;;;;;;4991236;28;20122;-78
2022/02/15 05:06:59;;;;;;;23.10;11.05;;;;;;;;;;4988555;28;20046;-78
2022/02/15 05:09:32;;;;;;;17.08;9.20;;;;;;;;;;4988067;28;20023;-78
2022/02/15 05:12:00;;;;;;;13.68;6.80;;;;;;;;;;4989419;28;20602;-79
2022/02/15 05:14:28;;;;;;;9.23;5.05;;;;;;;;;;4972741;28;20039;-78
2022/02/15 05:17:15;;;;;;;8.35;4.57;;;;;;;;;;4990055;28;20023;-79
2022/02/15 05:20:15;;;;;;;;;;;;;;;;;;4996822;28;20086;-79
2022/02/15 05:22:55;;;;;;;8.82;4.70;;;;;;;;;;4989999;28;19965;-78
2022/02/15 05:25:31;;;;;;;15.77;5.30;;;;;;;;;;4960586;28;20031;-79
2022/02/15 05:28:06;;;;;;;31.17;6.95;;;;;;;;;;4946482;28;20524;-78
2022/02/15 05:30:37;;;;;;;16.00;6.28;;;;;;;;;;4987047;28;20045;-78
2022/02/15 05:33:09;;;;;;;15.80;7.70;;;;;;;;;;4984271;28;20090;-77
2022/02/15 05:35:36;;;;;;;25.92;15.63;;;;;;;;;;4949666;29;20056;-79
2022/02/15 05:38:03;;;;;;;25.13;14.80;;;;;;;;;;4945242;29;20039;-77
2022/02/15 05:40:29;;;;;;;17.85;10.10;;;;;;;;;;4943729;29;20043;-78
2022/02/15 05:42:57;;;;;;;18.67;8.60;;;;;;;;;;4948497;29;20039;-77
2022/02/15 05:45:44;;;;;;;17.83;7.45;;;;;;;;;;4920935;29;20040;-79
2022/02/15 05:48:16;;;;;;;15.82;6.22;;;;;;;;;;4931661;29;20479;-77
2022/02/15 05:50:52;;;;;;;15.35;5.28;;;;;;;;;;4932479;29;20060;-79
2022/02/15 05:53:18;;;;;;;18.15;8.02;;;;;;;;;;4966514;29;20025;-77
2022/02/15 05:55:44;;;;;;;11.55;5.18;;;;;;;;;;4965019;29;20038;-77
2022/02/15 05:58:10;;;;;;;21.48;6.43;;;;;;;;;;4968409;29;20023;-77
2022/02/15 06:00:37;;;;;;;10.93;4.45;;;;;;;;;;4963241;28;20078;-78
2022/02/15 06:04:09;;;;;;;9.85;4.20;;;;;;;;;;4965883;29;20038;-78
2022/02/15 06:08:39;;;;;;;8.82;4.53;;;;;;;;;;4973142;29;20038;-78
2022/02/15 06:11:14;;;;;;;17.05;4.65;;;;;;;;;;4972978;28;20043;-79
2022/02/15 06:13:40;;;;;;;27.25;16.33;;;;;;;;;;4976055;29;20028;-76
2022/02/15 06:16:35;;;;;;;24.58;10.55;;;;;;;;;;4969864;29;20075;-78
2022/02/15 06:22:07;;;;;;;17.23;4.68;;;;;;;;;;4949717;29;20087;-74
2022/02/15 06:24:34;;;;;;;17.05;6.13;;;;;;;;;;4935841;29;20035;-77
2022/02/15 06:27:11;;;;;;;16.33;4.80;;;;;;;;;;4940231;29;20028;-73
2022/02/15 06:29:37;;;;;;;6.35;3.80;;;;;;;;;;4928345;29;20040;-77
2022/02/15 06:34:48;;;;;;;10.82;4.97;;;;;;;;;;5297738;23;20053;-77
2022/02/15 06:37:16;;;;;;;15.55;7.03;;;;;;;;;;5025389;28;20018;-79
2022/02/15 06:39:47;;;;;;;12.13;6.40;;;;;;;;;;5226549;23;20223;-75
2022/02/15 06:42:15;;;;;;;17.77;8.52;;;;;;;;;;5087281;23;20062;-75
2022/02/15 06:44:41;;;;;;;9.30;4.32;;;;;;;;;;4997670;28;20037;-76
2022/02/15 06:47:07;;;;;;;8.00;5.53;;;;;;;;;;5007128;23;20075;-75
2022/02/15 06:49:37;;;;;;;9.23;4.43;;;;;;;;;;4979565;28;20026;-75
2022/02/15 06:52:04;;;;;;;7.80;3.88;;;;;;;;;;4983982;28;20130;-76
2022/02/15 06:54:30;;;;;;;8.50;4.13;;;;;;;;;;4976592;28;20015;-75
2022/02/15 06:57:24;;;;;;;7.55;3.72;;;;;;;;;;4960223;28;20038;-82
2022/02/15 06:59:50;;;;;;;8.48;3.40;;;;;;;;;;4968849;28;20050;-78
2022/02/15 07:02:19;;;;;;;5.15;2.97;;;;;;;;;;4959310;28;20031;-76
2022/02/15 07:04:53;;;;;;;8.55;4.25;;;;;;;;;;4976781;28;20122;-79
2022/02/15 07:07:19;;;;;;;11.25;4.85;;;;;;;;;;4977085;28;20023;-76
2022/02/15 07:09:45;;;;;;;8.00;4.15;;;;;;;;;;4964108;28;20405;-75
2022/02/15 07:12:23;;;;;;;7.50;4.28;;;;;;;;;;4988307;28;20066;-77
2022/02/15 07:15:16;;;;;;;6.72;2.95;;;;;;;;;;4948695;28;20087;-77
2022/02/15 07:17:51;;;;;;;8.43;3.70;;;;;;;;;;4985843;28;20058;-78
2022/02/15 07:20:37;;;;;;;18.80;6.00;;;;;;;;;;4904693;29;20574;-76
2022/02/15 07:23:06;;;;;;;13.20;5.85;;;;;;;;;;4890959;29;20452;-75
2022/02/15 07:25:32;;;;;;;72.85;64.85;;;;;;;;;;4899598;29;20036;-76
2022/02/15 07:28:01;;;;;;;16.90;4.50;;;;;;;;;;4891303;29;20524;-75
2022/02/15 07:30:28;;;;;;;14.82;6.40;;;;;;;;;;4897496;29;20101;-75
2022/02/15 07:32:54;;;;;;;16.25;10.30;;;;;;;;;;4907741;29;20119;-80
2022/02/15 07:35:20;;;;;;;15.55;9.52;;;;;;;;;;4892747;29;20032;-84
2022/02/15 07:37:47;;;;;;;16.67;10.60;;;;;;;;;;4892711;29;20047;-85
2022/02/15 07:40:18;;;;;;;15.07;7.47;;;;;;;;;;4873399;29;20036;-79
2022/02/15 07:42:44;;;;;;;13.45;6.93;;;;;;;;;;4892028;29;20521;-83
2022/02/15 07:45:17;;;;;;;13.73;4.95;;;;;;;;;;4893580;29;20033;-80
2022/02/15 07:47:43;;;;;;;;;;;;;;;;;;4885466;29;20175;-84
2022/02/15 07:50:09;;;;;;;11.85;4.60;;;;;;;;;;4883050;29;19918;-76
2022/02/15 07:52:35;;;;;;;20.80;5.47;;;;;;;;;;4879515;29;20045;-91
2022/02/15 07:55:01;;;;;;;17.25;4.68;;;;;;;;;;4890902;29;20028;-81
2022/02/15 07:57:30;;;;;;;13.88;4.70;;;;;;;;;;4912886;29;20098;-77
2022/02/15 08:00:18;;;;;;;9.80;4.50;;;;;;;;;;4939761;29;20074;-89
2022/02/15 08:02:54;;;;;;;15.93;4.25;;;;;;;;;;4939722;28;20035;-82
2022/02/15 08:05:20;;;;;;;7.18;3.80;;;;;;;;;;4955325;29;20070;-73
2022/02/15 08:07:50;;;;;;;8.77;4.22;;;;;;;;;;4944843;29;20450;-73
2022/02/15 08:10:19;;;;;;;15.13;5.10;;;;;;;;;;4959449;28;20053;-72
2022/02/15 08:12:47;;;;;;;6.82;4.00;;;;;;;;;;4926198;29;20393;-74
2022/02/15 08:15:14;;;;;;;9.68;4.75;;;;;;;;;;4956122;29;20055;-72
2022/02/15 08:17:50;;;;;;;7.32;3.83;;;;;;;;;;4959039;28;20031;-78
2022/02/15 08:20:23;;;;;;;8.45;4.10;;;;;;;;;;4939276;29;20050;-81
2022/02/15 08:22:50;;;;;;;16.48;7.28;;;;;;;;;;4939020;29;20073;-84
2022/02/15 08:25:16;;;;;;;16.15;7.20;;;;;;;;;;4956339;28;20028;-85
2022/02/15 08:27:42;;;;;;;4.57;3.33;;;;;;;;;;4937870;29;20042;-76
2022/02/15 08:30:12;;;;;;;10.77;4.63;;;;;;;;;;4956885;29;20038;-74
2022/02/15 08:32:41;;;;;;;7.47;4.03;;;;;;;;;;4959693;29;20031;-75
2022/02/15 08:35:08;;;;;;;12.77;4.18;;;;;;;;;;4963464;28;20478;-76
2022/02/15 08:37:34;;;;;;;10.10;3.30;;;;;;;;;;4962173;28;20034;-76
2022/02/15 08:40:01;;;;;;;8.38;4.68;;;;;;;;;;4954699;29;20102;-77
2022/02/15 08:42:27;;;;;;;7.25;3.80;;;;;;;;;;4961464;29;20186;-77
2022/02/15 08:44:54;;;;;;;6.53;3.78;;;;;;;;;;4958449;29;20027;-76
2022/02/15 08:47:23;;;;;;;8.50;5.00;;;;;;;;;;4955678;28;20054;-82
2022/02/15 08:49:53;;;;;;;7.47;4.65;;;;;;;;;;4938416;29;20961;-79
2022/02/15 08:52:26;;;;;;;7.40;4.30;;;;;;;;;;4956212;29;20413;-76
2022/02/15 08:54:53;;;;;;;9.43;5.10;;;;;;;;;;4955596;29;20050;-76
2022/02/15 08:57:20;;;;;;;30.85;15.10;;;;;;;;;;4957888;28;20461;-77
2022/02/15 08:59:46;;;;;;;14.15;6.72;;;;;;;;;;4960903;29;20036;-75
2022/02/15 09:02:12;;;;;;;11.60;5.55;;;;;;;;;;4960716;28;20019;-75
2022/02/15 09:04:44;;;;;;;6.78;4.07;;;;;;;;;;4950538;29;20040;-78
2022/02/15 09:07:10;;;;;;;6.82;4.00;;;;;;;;;;4959685;29;20036;-78
2022/02/15 09:14:48;;;;;;;7.07;4.65;;;;;;;;;;5058910;23;20544;-75
2022/02/15 09:17:15;;;;;;;8.50;3.88;;;;;;;;;;4971806;28;20058;-77
2022/02/15 09:19:42;;;;;;;13.60;8.93;;;;;;;;;;4981165;28;20073;-77
2022/02/15 09:22:09;;;;;;;7.15;4.78;;;;;;;;;;4965818;28;20027;-78
2022/02/15 09:24:45;;;;;;;8.77;4.50;;;;;;;;;;4974761;28;20127;-77
2022/02/15 09:27:13;;;;;;;12.30;8.35;;;;;;;;;;4973640;28;20035;-78
2022/02/15 09:32:55;;;;;;;6.87;4.40;;;;;;;;;;4985370;28;20053;-77
2022/02/15 09:37:57;;;;;;;9.27;4.85;;;;;;;;;;5074263;23;20452;-76
2022/02/15 09:40:23;;;;;;;5.75;4.38;;;;;;;;;;4996659;28;20027;-74
2022/02/15 09:42:49;;;;;;;6.53;4.10;;;;;;;;;;4995341;28;20036;-74
2022/02/15 09:45:15;;;;;;;7.88;4.68;;;;;;;;;;4981815;28;20036;-76
2022/02/15 09:47:41;;;;;;;6.40;4.40;;;;;;;;;;4988194;28;20022;-77
2022/02/15 09:50:08;;;;;;;6.70;4.25;;;;;;;;;;5001790;28;20031;-77
2022/02/15 09:52:35;;;;;;;9.60;4.28;;;;;;;;;;4987324;28;20144;-71
2022/02/15 09:55:01;;;;;;;10.45;5.40;;;;;;;;;;4975648;28;20507;-74
2022/02/15 09:57:28;;;;;;;9.68;5.18;;;;;;;;;;4974586;28;20081;-72
2022/02/15 09:59:54;;;;;;;6.07;3.97;;;;;;;;;;4992912;28;20034;-73
2022/02/15 10:02:27;;;;;;;8.02;5.30;;;;;;;;;;4985193;28;21703;-70
2022/02/15 10:04:57;;;;;;;8.95;5.45;;;;;;;;;;4966418;28;20040;-72
2022/02/15 10:07:44;;;;;;;7.80;4.65;;;;;;;;;;4992702;28;20034;-69
2022/02/15 10:10:10;;;;;;;6.93;4.63;;;;;;;;;;4975887;28;20030;-76
2022/02/15 10:12:36;;;;;;;8.10;5.10;;;;;;;;;;4992527;28;20053;-74
2022/02/15 10:15:03;;;;;;;8.18;5.65;;;;;;;;;;4993831;28;20026;-71
2022/02/15 10:17:30;;;;;;;7.53;4.22;;;;;;;;;;4990532;28;20019;-73
2022/02/15 10:19:58;;;;;;;8.57;5.55;;;;;;;;;;4995425;28;20023;-72
2022/02/15 10:22:24;;;;;;;7.72;4.97;;;;;;;;;;4991063;28;20408;-74
2022/02/15 10:24:52;;;;;;;10.38;6.40;;;;;;;;;;4993474;28;20374;-73
2022/02/15 10:27:19;;;;;;;11.18;4.72;;;;;;;;;;4993448;28;20023;-74
2022/02/15 10:29:46;;;;;;;18.45;7.00;;;;;;;;;;4977294;28;20030;-74
2022/02/15 10:32:21;;;;;;;13.27;5.68;;;;;;;;;;4976539;28;20042;-75
2022/02/15 10:34:59;;;;;;;11.73;4.60;;;;;;;;;;4977249;28;20384;-76
2022/02/15 10:37:27;;;;;;;7.03;4.53;;;;;;;;;;4987661;28;20522;-73
2022/02/15 10:39:57;;;;;;;6.35;4.00;;;;;;;;;;4980578;28;20460;-74
2022/02/15 10:42:27;;;;;;;6.13;4.00;;;;;;;;;;4997541;28;20026;-74
2022/02/15 10:44:53;;;;;;;8.63;4.40;;;;;;;;;;4978998;28;20040;-75
2022/02/15 10:47:19;;;;;;;9.75;4.93;;;;;;;;;;4995804;28;20495;-77
2022/02/15 10:49:46;;;;;;;8.98;5.57;;;;;;;;;;4994506;28;20039;-75
2022/02/15 10:52:13;;;;;;;9.63;5.80;;;;;;;;;;4995807;28;20066;-75
2022/02/15 10:54:39;;;;;;;11.40;5.22;;;;;;;;;;4989583;28;20547;-76
2022/02/15 10:57:10;;;;;;;10.20;5.60;;;;;;;;;;4998587;28;20037;-76
2022/02/15 10:59:37;;;;;;;8.73;5.97;;;;;;;;;;4989005;28;20097;-76
2022/02/15 11:02:03;;;;;;;11.43;5.95;;;;;;;;;;4999038;28;20034;-75
2022/02/15 11:04:32;;;;;;;26.65;14.90;;;;;;;;;;4995581;28;20030;-77
2022/02/15 11:07:06;;;;;;;28.33;15.77;;;;;;;;;;4999316;28;20045;-78
2022/02/15 11:09:37;;;;;;;13.30;7.50;;;;;;;;;;4976780;28;20503;-76
2022/02/15 11:12:09;;;;;;;12.45;8.27;;;;;;;;;;4990311;28;20105;-74
2022/02/15 11:14:42;;;;;;;11.77;6.40;;;;;;;;;;4999369;28;20026;-78
2022/02/15 11:17:17;;;;;;;22.73;11.57;;;;;;;;;;5000576;28;20031;-76
2022/02/15 11:19:44;;;;;;;15.90;9.23;;;;;;;;;;4980416;28;20026;-77
2022/02/15 11:22:22;;;;;;;12.65;8.35;;;;;;;;;;4996655;28;20038;-77
2022/02/15 11:24:56;;;;;;;17.00;10.30;;;;;;;;;;4993499;28;20026;-74
2022/02/15 11:27:23;;;;;;;14.70;8.43;;;;;;;;;;4995001;28;20109;-74
2022/02/15 11:29:50;;;;;;;14.52;8.02;;;;;;;;;;4992698;28;20034;-73
2022/02/15 11:32:27;;;;;;;10.68;6.93;;;;;;;;;;4992742;28;20476;-74
2022/02/15 11:34:56;;;;;;;12.57;7.40;;;;;;;;;;4993218;28;20864;-73
2022/02/15 11:37:32;;;;;;;10.30;5.25;;;;;;;;;;4982588;28;20042;-75
2022/02/15 11:40:00;;;;;;;11.35;6.07;;;;;;;;;;4990011;28;20023;-76
2022/02/15 11:42:26;;;;;;;13.07;6.43;;;;;;;;;;4999580;28;20023;-75
2022/02/15 11:45:16;;;;;;;10.73;6.45;;;;;;;;;;5008438;28;20030;-73
2022/02/15 11:47:48;;;;;;;10.75;5.75;;;;;;;;;;4991776;28;20505;-72
2022/02/15 11:50:20;;;;;;;10.18;5.88;;;;;;;;;;5001987;28;20484;-76
2022/02/15 11:52:49;;;;;;;16.38;6.85;;;;;;;;;;5015455;28;20039;-78
2022/02/15 11:55:17;;;;;;;11.18;6.65;;;;;;;;;;4994545;28;20038;-76
2022/02/15 11:57:45;;;;;;;14.90;7.50;;;;;;;;;;5000451;28;20041;-75
2022/02/15 12:00:15;;;;;;;19.65;10.05;;;;;;;;;;5012459;28;20030;-78
2022/02/15 12:02:51;;;;;;;15.30;7.45;;;;;;;;;;4996179;28;20058;-76
2022/02/15 12:05:19;;;;;;;152.88;22.85;;;;;;;;;;4998512;28;20049;-77
2022/02/15 12:07:45;;;;;;;34.05;13.98;;;;;;;;;;4998922;28;20052;-77
2022/02/15 12:10:11;;;;;;;55.38;12.30;;;;;;;;;;5002164;28;20044;-76
2022/02/15 12:12:39;;;;;;;13.07;6.65;;;;;;;;;;4998716;28;20089;-72
2022/02/15 12:15:06;;;;;;;227.35;31.30;;;;;;;;;;4998463;28;20034;-76
2022/02/15 12:17:46;;;;;;;32.92;12.93;;;;;;;;;;4996766;28;20388;-75
2022/02/15 12:20:21;;;;;;;80.78;18.70;;;;;;;;;;4996949;28;20502;-73
2022/02/15 12:22:53;;;;;;;50.70;15.73;;;;;;;;;;4995237;28;20030;-71
2022/02/15 12:25:27;;;;;;;25.70;9.63;;;;;;;;;;4997492;28;20026;-75
2022/02/15 12:27:57;;;;;;;19.55;6.85;;;;;;;;;;5013234;28;20121;-76
2022/02/15 12:30:24;;;;;;;18.25;7.88;;;;;;;;;;4997209;28;20022;-72
2022/02/15 12:32:55;;;;;;;47.13;23.00;;;;;;;;;;4996956;28;20047;-72
2022/02/15 12:35:30;;;;;;;33.25;16.92;;;;;;;;;;4995850;28;20551;-71
2022/02/15 12:37:58;;;;;;;21.80;9.60;;;;;;;;;;4996168;28;20054;-72
2022/02/15 12:40:27;;;;;;;18.90;9.73;;;;;;;;;;4997666;28;20097;-75
2022/02/15 12:42:53;;;;;;;25.80;13.25;;;;;;;;;;5012348;28;20022;-73
2022/02/15 12:45:19;;;;;;;12.95;6.30;;;;;;;;;;4998940;28;20184;-72
2022/02/15 12:47:45;;;;;;;23.20;10.77;;;;;;;;;;4999647;28;20118;-77
2022/02/15 12:50:21;;;;;;;18.48;8.98;;;;;;;;;;4998671;28;20591;-76
2022/02/15 12:52:54;;;;;;;18.75;10.07;;;;;;;;;;5017527;28;20030;-72
2022/02/15 12:55:31;;;;;;;19.95;5.10;;;;;;;;;;4998798;28;20125;-74
2022/02/15 12:58:02;;;;;;;21.17;8.25;;;;;;;;;;4996930;28;20081;-71
2022/02/15 13:00:28;;;;;;;11.32;4.93;;;;;;;;;;5004512;28;20550;-72
2022/02/15 13:02:55;;;;;;;10.07;4.60;;;;;;;;;;4997012;28;20022;-75
2022/02/15 13:05:34;;;;;;;21.60;13.60;;;;;;;;;;4994729;28;20091;-72
2022/02/15 13:08:03;;;;;;;22.17;9.40;;;;;;;;;;4998500;28;20026;-71
2022/02/15 13:10:30;;;;;;;8.43;5.15;;;;;;;;;;5006837;28;20039;-75
2022/02/15 13:13:10;;;;;;;12.48;6.28;;;;;;;;;;4996521;28;20026;-75
2022/02/15 13:15:36;;;;;;;13.98;8.32;;;;;;;;;;4996446;28;20479;-76
2022/02/15 13:18:08;;;;;;;14.35;8.95;;;;;;;;;;5011410;28;20041;-77
2022/02/15 13:20:45;;;;;;;10.32;6.18;;;;;;;;;;4995773;28;20018;-72
2022/02/15 13:23:12;;;;;;;15.10;7.88;;;;;;;;;;4995563;28;20109;-77
2022/02/15 13:25:39;;;;;;;18.83;11.15;;;;;;;;;;4994187;28;20542;-74
2022/02/15 13:28:05;;;;;;;10.95;5.25;;;;;;;;;;4993877;28;20035;-73
2022/02/15 13:30:31;;;;;;;23.70;6.47;;;;;;;;;;4999362;28;20557;-73
2022/02/15 13:32:58;;;;;;;15.40;6.78;;;;;;;;;;4999241;28;20053;-73
2022/02/15 13:35:24;;;;;;;15.43;6.82;;;;;;;;;;4987343;28;20380;-75
2022/02/15 13:37:57;;;;;;;23.42;11.35;;;;;;;;;;4992629;28;20050;-73
2022/02/15 13:40:23;;;;;;;16.60;8.93;;;;;;;;;;4975788;28;20429;-71
2022/02/15 13:42:49;;;;;;;13.98;8.52;;;;;;;;;;4994554;28;20534;-72
2022/02/15 13:45:18;;;;;;;11.48;6.18;;;;;;;;;;4994629;28;20037;-72
2022/02/15 13:47:47;;;;;;;14.25;5.00;;;;;;;;;;4995165;28;20034;-72
2022/02/15 13:50:16;;;;;;;7.95;4.40;;;;;;;;;;4992352;28;20033;-72
2022/02/15 13:52:43;;;;;;;10.68;5.80;;;;;;;;;;4976584;28;20113;-74
2022/02/15 13:55:11;;;;;;;9.20;4.63;;;;;;;;;;4977961;28;20030;-72
2022/02/15 13:57:39;;;;;;;11.82;5.57;;;;;;;;;;4987874;28;20010;-76
2022/02/15 14:00:35;;;;;;;12.93;5.55;;;;;;;;;;5008245;28;20013;-78
2022/02/15 14:03:22;;;;;;;16.65;8.48;;;;;;;;;;5137140;23;20042;-77
2022/02/15 14:05:48;;;;;;;5.68;4.38;;;;;;;;;;4980136;28;20027;-74
2022/02/15 14:08:14;;;;;;;13.90;7.20;;;;;;;;;;5096706;23;20057;-74
2022/02/15 14:10:41;;;;;;;12.05;6.05;;;;;;;;;;4958387;28;20572;-74
2022/02/15 14:13:08;;;;;;;17.08;5.43;;;;;;;;;;4943243;29;20031;-76
2022/02/15 14:15:44;;;;;;;7.57;4.75;;;;;;;;;;4971032;28;20030;-77
2022/02/15 14:18:11;;;;;;;13.15;6.55;;;;;;;;;;4966754;28;20087;-74
2022/02/15 14:20:38;;;;;;;12.10;5.70;;;;;;;;;;4956313;29;20046;-75
2022/02/15 14:23:05;;;;;;;8.80;4.55;;;;;;;;;;4939652;29;20039;-77
2022/02/15 14:25:32;;;;;;;17.95;10.00;;;;;;;;;;4927779;29;20053;-75
2022/02/15 14:28:03;;;;;;;14.75;9.00;;;;;;;;;;4971688;29;20045;-77
2022/02/15 14:30:33;;;;;;;14.77;7.53;;;;;;;;;;4950547;29;20067;-77
2022/02/15 14:33:03;;;;;;;14.57;6.72;;;;;;;;;;4954412;29;20042;-76
2022/02/15 14:35:30;;;;;;;14.55;7.03;;;;;;;;;;4933199;29;20549;-71
2022/02/15 14:38:04;;;;;;;23.80;12.27;;;;;;;;;;4945891;29;20035;-74
2022/02/15 14:40:30;;;;;;;16.40;7.50;;;;;;;;;;4952748;29;20470;-73
2022/02/15 14:42:57;;;;;;;19.27;9.57;;;;;;;;;;4921606;29;20059;-75
2022/02/15 14:45:23;;;;;;;8.50;5.68;;;;;;;;;;4938313;29;20027;-77
2022/02/15 14:47:49;;;;;;;11.15;5.60;;;;;;;;;;4935079;29;20118;-74
2022/02/15 14:50:17;;;;;;;11.07;6.40;;;;;;;;;;4919099;29;20134;-73
2022/02/15 14:52:43;;;;;;;11.88;5.60;;;;;;;;;;4936667;29;20031;-72
2022/02/15 14:55:23;;;;;;;7.68;4.65;;;;;;;;;;4940384;29;20024;-74
2022/02/15 14:57:58;;;;;;;8.70;3.97;;;;;;;;;;4929797;29;20040;-74
2022/02/15 15:00:26;;;;;;;11.48;6.38;;;;;;;;;;4941332;29;20023;-77
2022/02/15 15:02:53;;;;;;;12.65;8.25;;;;;;;;;;4923154;29;20047;-75
2022/02/15 15:05:20;;;;;;;14.55;6.70;;;;;;;;;;4945674;29;20052;-73
2022/02/15 15:07:53;;;;;;;10.80;5.57;;;;;;;;;;4938585;29;20048;-76
2022/02/15 15:10:20;;;;;;;6.47;5.10;;;;;;;;;;4943627;28;20062;-75
2022/02/15 15:12:49;;;;;;;11.48;5.38;;;;;;;;;;4928088;29;20063;-75
2022/02/15 15:15:17;;;;;;;11.05;5.05;;;;;;;;;;4951562;29;20040;-72
2022/02/15 15:17:47;;;;;;;10.50;5.00;;;;;;;;;;4950973;29;20052;-77
2022/02/15 15:20:23;;;;;;;10.85;5.65;;;;;;;;;;4946813;29;20035;-78
2022/02/15 15:22:50;;;;;;;12.93;4.85;;;;;;;;;;4927185;29;20032;-73
2022/02/15 15:25:28;;;;;;;11.18;5.25;;;;;;;;;;4943742;29;20023;-72
2022/02/15 15:27:54;;;;;;;10.00;5.38;;;;;;;;;;4922518;29;20533;-75
2022/02/15 15:30:21;;;;;;;12.45;6.15;;;;;;;;;;4942410;29;20024;-77